createdAt,value
2018-04-16T00:00:04.531Z,4.82
2018-04-16T00:02:32.704Z,4.80
2018-04-16T00:05:01.172Z,4.15
2018-04-16T00:07:29.349Z,4.35
2018-04-16T00:09:58.338Z,3.97
2018-04-16T00:12:27.265Z,4.07
2018-04-16T00:14:55.829Z,4.55
2018-04-16T00:17:23.994Z,3.47
2018-04-16T00:19:52.152Z,3.60
2018-04-16T00:22:21.090Z,4.70
2018-04-16T00:24:49.245Z,3.95
2018-04-16T00:27:18.176Z,4.35
2018-04-16T00:29:46.372Z,4.78
2018-04-16T00:32:20.559Z,7.70
2018-04-16T00:34:54.532Z,4.40
2018-04-16T00:37:28.272Z,5.87
2018-04-16T00:40:01.976Z,5.35
2018-04-16T00:42:35.966Z,11.35
2018-04-16T00:45:09.872Z,5.50
2018-04-16T00:47:52.931Z,7.10
2018-04-16T00:50:26.748Z,4.10
2018-04-16T00:55:47.390Z,4.82
2018-04-16T00:58:21.553Z,7.45
2018-04-16T01:00:56.319Z,8.98
2018-04-16T01:03:30.057Z,7.28
2018-04-16T01:06:03.896Z,6.25
2018-04-16T01:08:38.123Z,6.60
2018-04-16T01:11:11.879Z,6.80
2018-04-16T01:13:45.613Z,7.47
2018-04-16T01:16:19.445Z,8.02
2018-04-16T01:18:53.969Z,5.55
2018-04-16T01:21:34.247Z,10.80
2018-04-16T01:24:08.035Z,4.20
2018-04-16T01:27:01.720Z,8.90
2018-04-16T01:29:35.457Z,7.03
2018-04-16T01:32:09.491Z,5.22
2018-04-16T01:34:43.231Z,7.80
2018-04-16T01:37:17.624Z,5.05
2018-04-16T01:39:51.463Z,3.97
2018-04-16T01:42:39.342Z,10.38
2018-04-16T01:45:13.104Z,3.95
2018-04-16T01:47:46.871Z,5.62
2018-04-16T01:50:21.568Z,5.03
2018-04-16T01:52:55.268Z,7.72
2018-04-16T01:55:29.943Z,4.80
2018-04-16T01:58:03.681Z,5.37
2018-04-16T02:00:37.417Z,4.72
2018-04-16T02:03:11.598Z,6.03
2018-04-16T02:05:45.824Z,4.55
2018-04-16T02:08:20.448Z,6.75
2018-04-16T02:10:54.226Z,5.32
2018-04-16T02:13:27.947Z,10.15
2018-04-16T02:16:01.707Z,6.40
2018-04-16T02:18:35.658Z,4.85
2018-04-16T02:21:10.798Z,7.20
2018-04-16T02:23:45.206Z,4.85
2018-04-16T02:26:32.156Z,4.82
2018-04-16T02:29:05.944Z,4.15
2018-04-16T02:31:39.819Z,5.60
2018-04-16T02:34:13.789Z,4.82
2018-04-16T02:36:48.304Z,4.97
2018-04-16T02:39:22.828Z,4.37
2018-04-16T02:41:57.454Z,4.15
2018-04-16T02:44:31.957Z,4.03
2018-04-16T02:47:05.683Z,6.47
2018-04-16T02:49:40.218Z,6.28
2018-04-16T02:52:14.059Z,7.43
2018-04-16T02:54:47.787Z,6.00
2018-04-16T02:57:21.586Z,5.10
2018-04-16T02:59:55.334Z,6.93
2018-04-16T03:02:29.161Z,6.30
2018-04-16T03:05:03.816Z,4.93
2018-04-16T03:07:37.548Z,12.35
2018-04-16T03:10:11.487Z,5.97
2018-04-16T03:15:44.232Z,8.45
2018-04-16T03:18:17.921Z,4.20
2018-04-16T03:20:51.741Z,3.62
2018-04-16T03:23:26.355Z,6.53
2018-04-16T03:26:00.091Z,4.43
2018-04-16T03:28:33.963Z,6.12
2018-04-16T03:31:08.082Z,5.20
2018-04-16T03:33:54.012Z,8.27
2018-04-16T03:36:27.735Z,6.50
2018-04-16T03:39:01.518Z,5.40
2018-04-16T03:41:36.108Z,4.78
2018-04-16T03:44:09.832Z,4.95
2018-04-16T03:46:54.813Z,7.25
2018-04-16T03:49:28.756Z,5.78
2018-04-16T03:52:13.849Z,5.00
2018-04-16T03:54:42.516Z,4.87
2018-04-16T03:57:10.783Z,4.78
2018-04-16T03:59:40.384Z,4.97
2018-04-16T04:02:09.797Z,5.62
2018-04-16T04:04:37.965Z,6.43
2018-04-16T04:07:06.110Z,6.30
2018-04-16T04:09:34.909Z,5.87
2018-04-16T04:12:03.151Z,8.50
2018-04-16T04:14:31.703Z,6.00
2018-04-16T04:16:59.907Z,7.78
2018-04-16T04:19:28.080Z,8.82
2018-04-16T04:21:56.695Z,4.50
2018-04-16T04:24:36.812Z,5.62
2018-04-16T04:27:16.665Z,7.12
2018-04-16T04:29:57.229Z,5.40
2018-04-16T04:32:25.393Z,6.20
2018-04-16T04:34:53.568Z,6.78
2018-04-16T04:37:21.726Z,10.07
2018-04-16T04:39:49.885Z,10.10
2018-04-16T04:42:18.027Z,6.22
2018-04-16T04:44:46.971Z,9.80
2018-04-16T04:47:15.703Z,9.85
2018-04-16T04:49:44.266Z,9.07
2018-04-16T04:52:12.492Z,11.00
2018-04-16T04:54:40.813Z,10.65
2018-04-16T04:57:09.245Z,10.98
2018-04-16T04:59:37.412Z,11.90
2018-04-16T05:02:05.656Z,12.50
2018-04-16T05:04:33.878Z,13.75
2018-04-16T05:07:02.048Z,17.60
2018-04-16T05:09:30.964Z,16.48
2018-04-16T05:11:59.749Z,15.73
2018-04-16T05:14:27.912Z,20.02
2018-04-16T05:16:56.092Z,15.43
2018-04-16T05:19:24.242Z,14.30
2018-04-16T05:21:53.449Z,14.70
2018-04-16T05:24:21.884Z,16.70
2018-04-16T05:26:50.029Z,16.12
2018-04-16T05:29:18.240Z,14.18
2018-04-16T05:31:46.466Z,14.52
2018-04-16T05:34:14.862Z,14.80
2018-04-16T05:36:44.235Z,13.75
2018-04-16T05:39:12.413Z,12.73
2018-04-16T05:41:41.870Z,13.48
2018-04-16T05:44:10.810Z,12.10
2018-04-16T05:46:38.983Z,13.13
2018-04-16T05:49:07.163Z,10.05
2018-04-16T05:51:39.649Z,11.12
2018-04-16T05:54:07.812Z,14.77
2018-04-16T05:56:36.399Z,11.70
2018-04-16T05:59:05.384Z,11.07
2018-04-16T06:01:33.555Z,10.93
2018-04-16T06:04:02.641Z,8.80
2018-04-16T06:06:30.832Z,10.40
2018-04-16T06:08:59.767Z,12.10
2018-04-16T06:11:35.743Z,9.80
2018-04-16T06:14:04.429Z,11.35
2018-04-16T06:16:32.633Z,8.95
2018-04-16T06:19:01.837Z,9.98
2018-04-16T06:21:29.997Z,9.65
2018-04-16T06:23:58.562Z,10.10
2018-04-16T06:26:26.728Z,9.80
2018-04-16T06:28:54.898Z,10.45
2018-04-16T06:31:23.156Z,8.85
2018-04-16T06:33:51.652Z,8.77
2018-04-16T06:36:21.558Z,10.60
2018-04-16T06:38:52.184Z,8.70
2018-04-16T06:41:26.138Z,8.93
2018-04-16T06:43:54.317Z,8.55
2018-04-16T06:46:22.500Z,8.32
2018-04-16T06:48:50.658Z,8.60
2018-04-16T06:51:18.958Z,8.82
2018-04-16T06:53:47.123Z,9.57
2018-04-16T06:56:15.284Z,8.02
2018-04-16T06:58:44.197Z,6.65
2018-04-16T07:01:12.484Z,8.75
2018-04-16T07:03:48.842Z,9.95
2018-04-16T07:06:17.577Z,7.70
2018-04-16T07:08:45.731Z,7.30
2018-04-16T07:11:14.012Z,7.80
2018-04-16T07:13:42.174Z,7.62
2018-04-16T07:16:10.330Z,7.20
2018-04-16T07:18:38.505Z,5.97
2018-04-16T07:21:06.664Z,6.30
2018-04-16T07:23:34.830Z,5.93
2018-04-16T07:26:02.980Z,5.68
2018-04-16T07:28:31.136Z,6.55
2018-04-16T07:30:59.363Z,6.30
2018-04-16T07:33:27.511Z,5.37
2018-04-16T07:35:56.516Z,5.45
2018-04-16T07:38:24.675Z,4.40
2018-04-16T07:40:52.873Z,4.72
2018-04-16T07:43:21.271Z,8.38
2018-04-16T07:45:49.457Z,5.95
2018-04-16T07:48:17.667Z,5.35
2018-04-16T07:50:50.898Z,4.68
2018-04-16T07:53:19.405Z,5.10
2018-04-16T07:55:47.560Z,5.80
2018-04-16T07:58:15.714Z,5.22
2018-04-16T08:00:44.633Z,4.03
2018-04-16T08:03:12.797Z,4.30
2018-04-16T08:05:40.957Z,3.53
2018-04-16T08:08:09.509Z,3.85
2018-04-16T08:10:37.731Z,3.60
2018-04-16T08:13:06.711Z,2.90
2018-04-16T08:15:34.877Z,5.70
2018-04-16T08:18:03.039Z,4.72
2018-04-16T08:20:33.129Z,3.25
2018-04-16T08:23:01.276Z,3.75
2018-04-16T08:25:29.582Z,2.75
2018-04-16T08:27:57.747Z,3.47
2018-04-16T08:30:25.983Z,2.47
2018-04-16T08:32:54.141Z,3.08
2018-04-16T08:35:22.296Z,2.10
2018-04-16T08:37:50.442Z,2.97
2018-04-16T08:40:22.151Z,3.20
2018-04-16T08:42:51.064Z,5.00
2018-04-16T08:45:19.212Z,2.72
2018-04-16T08:47:47.377Z,2.87
2018-04-16T08:50:15.692Z,3.65
2018-04-16T08:52:43.864Z,4.65
2018-04-16T08:55:12.045Z,4.85
2018-04-16T08:57:40.199Z,3.08
2018-04-16T09:00:09.558Z,1.90
2018-04-16T09:02:37.707Z,2.10
2018-04-16T09:05:05.868Z,3.72
2018-04-16T09:07:34.020Z,3.22
2018-04-16T09:10:02.284Z,3.35
2018-04-16T09:12:31.215Z,2.58
2018-04-16T09:14:59.377Z,2.00
2018-04-16T09:17:28.296Z,4.10
2018-04-16T09:19:56.467Z,1.60
2018-04-16T09:22:24.612Z,1.75
2018-04-16T09:24:52.768Z,2.20
2018-04-16T09:27:20.943Z,2.97
2018-04-16T09:29:49.112Z,1.80
2018-04-16T09:32:18.362Z,1.45
2018-04-16T09:34:46.510Z,6.45
2018-04-16T09:37:15.442Z,1.92
2018-04-16T09:39:43.607Z,4.25
2018-04-16T09:42:11.793Z,3.35
2018-04-16T09:44:39.969Z,2.03
2018-04-16T09:47:08.136Z,3.78
2018-04-16T09:49:36.274Z,1.70
2018-04-16T09:52:04.493Z,2.35
2018-04-16T09:54:32.677Z,1.83
2018-04-16T09:57:00.880Z,2.72
2018-04-16T09:59:29.036Z,1.60
2018-04-16T10:01:57.200Z,1.35
2018-04-16T10:04:25.355Z,1.20
2018-04-16T10:06:53.524Z,1.30
2018-04-16T10:09:21.708Z,3.50
2018-04-16T10:11:54.123Z,5.45
2018-04-16T10:14:22.279Z,4.15
2018-04-16T10:16:53.546Z,3.25
2018-04-16T10:19:21.708Z,1.58
2018-04-16T10:21:57.753Z,2.90
2018-04-16T10:24:25.904Z,1.92
2018-04-16T10:26:54.076Z,4.62
2018-04-16T10:29:22.250Z,2.67
2018-04-16T10:31:50.405Z,3.10
2018-04-16T10:34:18.576Z,1.23
2018-04-16T10:36:46.741Z,2.55
2018-04-16T10:39:14.914Z,1.70
2018-04-16T10:41:43.073Z,6.22
2018-04-16T10:44:11.228Z,2.05
2018-04-16T10:46:40.172Z,1.50
2018-04-16T10:49:08.345Z,3.10
2018-04-16T10:51:40.285Z,1.55
2018-04-16T10:54:08.536Z,4.32
2018-04-16T10:56:36.708Z,3.20
2018-04-16T10:59:05.657Z,1.42
2018-04-16T11:01:34.811Z,2.58
2018-04-16T11:04:02.990Z,2.75
2018-04-16T11:06:31.462Z,2.80
2018-04-16T11:08:59.632Z,1.00
2018-04-16T11:11:27.924Z,1.23
2018-04-16T11:13:56.080Z,13.07
2018-04-16T11:16:24.250Z,1.00
2018-04-16T11:18:52.406Z,2.13
2018-04-16T11:21:20.628Z,1.70
2018-04-16T11:23:48.797Z,1.00
2018-04-16T11:26:17.657Z,3.10
2018-04-16T11:28:46.668Z,1.00
2018-04-16T11:31:14.985Z,2.75
2018-04-16T11:33:43.144Z,0.93
2018-04-16T11:36:11.295Z,2.35
2018-04-16T11:38:39.454Z,0.60
2018-04-16T11:41:08.488Z,2.15
2018-04-16T11:43:36.653Z,0.93
2018-04-16T11:46:04.833Z,2.70
2018-04-16T11:48:32.983Z,1.70
2018-04-16T11:51:01.155Z,1.08
2018-04-16T11:53:29.334Z,2.55
2018-04-16T11:55:57.495Z,2.28
2018-04-16T11:58:26.417Z,1.10
2018-04-16T12:00:54.676Z,2.67
2018-04-16T12:03:22.830Z,0.80
2018-04-16T12:05:50.998Z,2.25
2018-04-16T12:08:19.159Z,1.90
2018-04-16T12:10:51.308Z,1.77
2018-04-16T12:13:20.574Z,1.55
2018-04-16T12:15:49.144Z,1.55
2018-04-16T12:18:18.232Z,0.82
2018-04-16T12:20:46.416Z,3.60
2018-04-16T12:23:14.614Z,1.40
2018-04-16T12:25:42.777Z,1.40
2018-04-16T12:28:11.036Z,2.45
2018-04-16T12:30:40.160Z,1.92
2018-04-16T12:33:08.429Z,1.60
2018-04-16T12:35:36.607Z,2.10
2018-04-16T12:38:06.534Z,1.20
2018-04-16T12:40:34.706Z,3.15
2018-04-16T12:43:02.966Z,0.80
2018-04-16T12:45:31.972Z,1.75
2018-04-16T12:48:00.241Z,2.40
2018-04-16T12:50:32.479Z,1.17
2018-04-16T12:53:01.928Z,1.48
2018-04-16T12:55:33.137Z,1.52
2018-04-16T12:58:01.291Z,2.05
2018-04-16T13:00:30.624Z,3.28
2018-04-16T13:02:58.780Z,1.25
2018-04-16T13:05:27.821Z,1.05
2018-04-16T13:07:56.018Z,2.12
2018-04-16T13:10:25.362Z,1.85
2018-04-16T13:12:53.563Z,2.75
2018-04-16T13:15:22.451Z,2.17
2018-04-16T13:17:50.627Z,4.32
2018-04-16T13:20:19.598Z,1.12
2018-04-16T13:22:47.912Z,1.55
2018-04-16T13:25:16.096Z,2.92
2018-04-16T13:27:44.941Z,1.43
2018-04-16T13:30:13.121Z,3.28
2018-04-16T13:32:43.349Z,2.85
2018-04-16T13:35:12.211Z,3.30
2018-04-16T13:37:40.385Z,2.17
2018-04-16T13:40:17.976Z,3.60
2018-04-16T13:42:46.153Z,2.10
2018-04-16T13:45:15.152Z,1.92
2018-04-16T13:47:44.496Z,1.25
2018-04-16T13:50:12.652Z,2.55
2018-04-16T13:52:40.840Z,1.60
2018-04-16T13:55:11.208Z,1.80
2018-04-16T13:57:40.483Z,2.75
2018-04-16T14:00:11.048Z,3.08
2018-04-16T14:02:39.279Z,1.83
2018-04-16T14:05:07.736Z,2.47
2018-04-16T14:07:37.062Z,5.05
2018-04-16T14:10:05.369Z,3.55
2018-04-16T14:12:33.592Z,1.95
2018-04-16T14:15:02.350Z,0.95
2018-04-16T14:17:32.412Z,1.45
2018-04-16T14:20:03.046Z,1.52
2018-04-16T14:22:31.224Z,2.60
2018-04-16T14:24:59.538Z,1.57
2018-04-16T14:27:27.710Z,2.10
2018-04-16T14:29:55.985Z,1.43
2018-04-16T14:32:25.795Z,1.50
2018-04-16T14:34:54.136Z,1.63
2018-04-16T14:37:22.624Z,2.60
2018-04-16T14:39:51.008Z,2.20
2018-04-16T14:42:19.869Z,2.27
2018-04-16T14:44:48.049Z,1.67
2018-04-16T14:47:18.285Z,1.90
2018-04-16T14:49:47.300Z,1.40
2018-04-16T14:52:15.484Z,1.80
2018-04-16T14:54:44.386Z,1.17
2018-04-16T14:57:12.963Z,1.90
2018-04-16T14:59:42.005Z,1.50
2018-04-16T15:02:10.158Z,2.83
2018-04-16T15:04:39.082Z,2.80
2018-04-16T15:07:07.708Z,1.10
2018-04-16T15:09:36.531Z,2.65
2018-04-16T15:12:04.737Z,1.10
2018-04-16T15:14:32.903Z,1.33
2018-04-16T15:17:01.971Z,4.90
2018-04-16T15:19:30.145Z,3.57
2018-04-16T15:21:58.904Z,1.17
2018-04-16T15:24:27.079Z,1.73
2018-04-16T15:26:56.010Z,1.30
2018-04-16T15:29:24.181Z,1.47
2018-04-16T15:31:52.435Z,1.93
2018-04-16T15:34:20.680Z,1.10
2018-04-16T15:36:48.826Z,2.67
2018-04-16T15:39:17.004Z,1.27
2018-04-16T15:41:45.249Z,1.80
2018-04-16T15:44:13.416Z,2.00
2018-04-16T15:46:41.587Z,1.83
2018-04-16T15:49:09.746Z,1.57
2018-04-16T15:51:38.038Z,1.00
2018-04-16T15:54:08.056Z,2.13
2018-04-16T15:56:36.596Z,1.17
2018-04-16T15:59:05.428Z,3.80
2018-04-16T16:01:39.521Z,5.07
2018-04-16T16:04:08.885Z,1.70
2018-04-16T16:06:37.108Z,1.53
2018-04-16T16:09:06.205Z,3.13
2018-04-16T16:11:34.503Z,2.80
2018-04-16T16:14:03.973Z,1.40
2018-04-16T16:16:32.149Z,1.25
2018-04-16T16:19:03.530Z,1.35
2018-04-16T16:21:32.517Z,1.58
2018-04-16T16:24:01.549Z,2.28
2018-04-16T16:26:30.032Z,2.33
2018-04-16T16:28:58.990Z,1.40
2018-04-16T16:31:27.169Z,3.17
2018-04-16T16:33:55.325Z,1.20
2018-04-16T16:36:24.257Z,1.70
2018-04-16T16:38:52.430Z,3.47
2018-04-16T16:41:20.601Z,1.35
2018-04-16T16:43:49.449Z,2.70
2018-04-16T16:46:21.112Z,1.07
2018-04-16T16:48:49.202Z,1.45
2018-04-16T16:51:17.375Z,1.35
2018-04-16T16:53:45.536Z,1.85
2018-04-16T16:56:13.725Z,1.15
2018-04-16T16:58:41.899Z,3.10
2018-04-16T17:01:10.898Z,2.58
2018-04-16T17:03:39.304Z,2.58
2018-04-16T17:06:07.495Z,1.98
2018-04-16T17:08:35.679Z,1.65
2018-04-16T17:11:03.860Z,1.60
2018-04-16T17:13:33.000Z,1.45
2018-04-16T17:16:01.189Z,4.22
2018-04-16T17:18:29.345Z,3.45
2018-04-16T17:20:58.271Z,2.85
2018-04-16T17:23:26.533Z,0.98
2018-04-16T17:25:54.720Z,1.62
2018-04-16T17:28:22.927Z,3.03
2018-04-16T17:30:51.097Z,3.42
2018-04-16T17:33:20.264Z,2.65
2018-04-16T17:35:48.453Z,3.15
2018-04-16T17:38:16.717Z,1.70
2018-04-16T17:40:45.803Z,1.00
2018-04-16T17:43:14.974Z,2.05
2018-04-16T17:45:43.194Z,2.00
2018-04-16T17:48:11.391Z,1.67
2018-04-16T17:50:41.004Z,1.33
2018-04-16T17:53:10.136Z,1.15
2018-04-16T17:55:39.091Z,0.90
2018-04-16T17:58:07.253Z,2.45
2018-04-16T18:00:35.430Z,1.40
2018-04-16T18:03:03.658Z,2.33
2018-04-16T18:05:31.812Z,3.47
2018-04-16T18:07:59.965Z,1.40
2018-04-16T18:10:28.137Z,1.50
2018-04-16T18:12:56.342Z,1.08
2018-04-16T18:15:24.496Z,3.35
2018-04-16T18:17:53.433Z,4.60
2018-04-16T18:20:21.602Z,3.72
2018-04-16T18:22:53.320Z,1.50
2018-04-16T18:25:21.480Z,1.50
2018-04-16T18:27:49.699Z,4.82
2018-04-16T18:30:18.592Z,1.73
2018-04-16T18:32:46.863Z,1.80
2018-04-16T18:35:15.027Z,2.80
2018-04-16T18:37:43.185Z,3.05
2018-04-16T18:40:12.093Z,1.20
2018-04-16T18:42:48.027Z,1.50
2018-04-16T18:45:17.700Z,1.73
2018-04-16T18:47:45.896Z,1.75
2018-04-16T18:50:14.744Z,1.60
2018-04-16T18:52:46.166Z,3.00
2018-04-16T18:55:14.378Z,1.45
2018-04-16T18:57:42.535Z,4.32
2018-04-16T19:00:10.712Z,1.50
2018-04-16T19:02:38.904Z,5.10
2018-04-16T19:05:07.057Z,2.97
2018-04-16T19:07:35.248Z,4.12
2018-04-16T19:10:03.393Z,2.25
2018-04-16T19:12:32.604Z,2.62
2018-04-16T19:15:00.782Z,3.00
2018-04-16T19:17:30.033Z,2.37
2018-04-16T19:19:58.215Z,2.12
2018-04-16T19:22:27.349Z,3.67
2018-04-16T19:24:59.149Z,5.55
2018-04-16T19:27:33.016Z,5.82
2018-04-16T19:30:01.200Z,4.93
2018-04-16T19:32:36.974Z,5.12
2018-04-16T19:35:07.978Z,4.55
2018-04-16T19:37:36.147Z,5.03
2018-04-16T19:40:04.550Z,3.60
2018-04-16T19:42:38.608Z,3.28
2018-04-16T19:45:07.526Z,7.00
2018-04-16T19:47:37.905Z,6.80
2018-04-16T19:50:07.293Z,4.87
2018-04-16T19:52:35.598Z,4.60
2018-04-16T19:55:03.864Z,4.97
2018-04-16T19:57:37.744Z,4.55
2018-04-16T20:00:06.215Z,2.65
2018-04-16T20:02:39.913Z,1.98
2018-04-16T20:05:09.125Z,4.12
2018-04-16T20:07:37.333Z,3.72
2018-04-16T20:10:06.315Z,3.30
2018-04-16T20:12:34.786Z,2.80
2018-04-16T20:15:03.115Z,2.10
2018-04-16T20:17:32.648Z,1.92
2018-04-16T20:20:00.788Z,2.45
2018-04-16T20:22:29.782Z,4.50
2018-04-16T20:24:58.156Z,2.90
2018-04-16T20:27:26.336Z,1.33
2018-04-16T20:29:55.264Z,1.60
2018-04-16T20:32:24.727Z,2.17
2018-04-16T20:34:53.360Z,3.28
2018-04-16T20:37:22.001Z,3.12
2018-04-16T20:39:51.172Z,1.92
2018-04-16T20:42:19.559Z,3.20
2018-04-16T20:44:47.764Z,3.72
2018-04-16T20:47:16.093Z,2.97
2018-04-16T20:49:44.404Z,2.42
2018-04-16T20:52:12.579Z,2.08
2018-04-16T20:54:41.796Z,2.25
2018-04-16T20:57:09.943Z,3.20
2018-04-16T20:59:38.139Z,2.25
2018-04-16T21:02:07.180Z,1.85
2018-04-16T21:04:35.329Z,1.65
2018-04-16T21:07:03.496Z,2.35
2018-04-16T21:09:31.658Z,1.85
2018-04-16T21:12:03.766Z,4.32
2018-04-16T21:14:32.009Z,1.98
2018-04-16T21:17:00.128Z,4.32
2018-04-16T21:19:28.289Z,2.22
2018-04-16T21:21:56.457Z,2.05
2018-04-16T21:24:25.037Z,2.30
2018-04-16T21:26:53.201Z,2.45
2018-04-16T21:29:21.377Z,2.30
2018-04-16T21:31:50.956Z,1.98
2018-04-16T21:34:19.863Z,2.20
2018-04-16T21:36:48.036Z,3.55
2018-04-16T21:39:16.209Z,2.20
2018-04-16T21:41:44.460Z,1.83
2018-04-16T21:44:12.620Z,4.03
2018-04-16T21:46:40.799Z,4.60
2018-04-16T21:49:09.533Z,4.62
2018-04-16T21:51:37.687Z,7.40
2018-04-16T21:54:05.885Z,3.67
2018-04-16T21:56:34.050Z,6.45
2018-04-16T21:59:03.195Z,1.70
2018-04-16T22:01:31.359Z,2.50
2018-04-16T22:03:59.508Z,2.28
2018-04-16T22:06:27.669Z,2.85
2018-04-16T22:08:55.808Z,2.33
2018-04-16T22:11:23.969Z,2.78
2018-04-16T22:13:52.125Z,2.22
2018-04-16T22:16:20.272Z,2.47
2018-04-16T22:18:48.448Z,5.03
2018-04-16T22:21:16.590Z,2.85
2018-04-16T22:23:44.763Z,2.20
2018-04-16T22:26:13.860Z,3.53
2018-04-16T22:28:42.012Z,2.72
2018-04-16T22:31:10.936Z,2.50
2018-04-16T22:33:39.099Z,2.20
2018-04-16T22:36:07.251Z,2.70
2018-04-16T22:38:36.188Z,2.45
2018-04-16T22:41:04.419Z,3.12
2018-04-16T22:43:33.424Z,1.45
2018-04-16T22:46:02.343Z,2.40
2018-04-16T22:48:30.483Z,2.75
2018-04-16T22:50:58.632Z,4.28
2018-04-16T22:53:26.780Z,2.33
2018-04-16T22:55:54.946Z,3.70
2018-04-16T22:58:23.102Z,1.92
2018-04-16T23:00:51.249Z,3.33
2018-04-16T23:03:19.449Z,2.80
2018-04-16T23:05:47.610Z,5.28
2018-04-16T23:08:15.751Z,3.80
2018-04-16T23:10:43.913Z,2.65
2018-04-16T23:13:12.136Z,2.97
2018-04-16T23:15:40.307Z,2.97
2018-04-16T23:18:08.503Z,2.47
2018-04-16T23:20:36.649Z,3.33
2018-04-16T23:23:06.678Z,3.03
2018-04-16T23:25:34.827Z,2.30
2018-04-16T23:28:03.751Z,3.58
2018-04-16T23:30:31.913Z,6.85
2018-04-16T23:33:00.190Z,3.25
2018-04-16T23:35:28.336Z,3.95
2018-04-16T23:37:56.488Z,6.05
2018-04-16T23:40:25.455Z,3.22
2018-04-16T23:42:53.695Z,2.55
2018-04-16T23:45:21.863Z,3.35
2018-04-16T23:47:50.785Z,2.03
2018-04-16T23:50:18.923Z,2.33
2018-04-16T23:52:48.015Z,3.45
2018-04-16T23:55:17.140Z,3.00
2018-04-16T23:57:45.288Z,2.90
